Date,TemperatureHighF,TemperatureAvgF,TemperatureLowF,DewpointHighF,DewpointAvgF,DewpointLowF,HumidityHigh,HumidityAvg,HumidityLow,PressureMaxIn,PressureMinIn,WindSpeedMaxMPH,WindSpeedAvgMPH,GustSpeedMaxMPH,PrecipitationSumIn
2012-12-1,51.1,36.8,21.6,25.5,17.2,6.6,64,47,21,31.79,31.67,15,3,15,0.00
2012-12-2,51.8,32.0,14.2,23.5,9.8,1.9,63,42,21,31.77,31.59,23,3,23,0.00
2012-12-3,42.8,31.8,18.9,27.0,13.6,-0.6,85,50,21,31.85,31.58,15,3,16,0.00
2012-12-4,48.4,27.1,7.2,13.6,6.7,-2.4,71,45,21,31.95,31.85,15,2,15,0.00
2012-12-5,54.0,34.8,22.1,27.0,16.6,9.5,69,50,23,31.92,31.69,13,2,13,0.00
2012-12-6,43.9,30.5,16.7,28.0,19.2,9.7,78,64,37,31.70,31.59,11,1,11,0.00
2012-12-7,40.5,27.5,17.8,19.0,11.8,2.3,80,54,24,31.60,31.53,24,3,24,0.00
2012-12-8,36.5,24.4,15.1,16.7,10.8,1.6,83,59,25,31.54,31.40,23,3,23,0.00
2012-12-9,15.1,4.2,-9.2,8.8,-7.7,-22.4,77,58,36,31.62,31.43,11,2,11,0.00
2012-12-10,20.3,9.2,-2.9,7.5,-3.4,-18.8,69,56,39,31.59,31.49,17,3,17,0.00
2012-12-11,27.1,13.3,2.8,4.8,-0.3,-6.9,70,55,30,31.58,31.51,12,2,13,0.00
2012-12-12,41.2,21.3,0.9,12.2,3.1,-8.1,76,49,25,31.64,31.55,28,3,28,0.02
2012-12-13,39.2,25.4,8.2,8.6,2.5,-3.1,64,39,24,31.68,31.61,17,4,17,0.00
2012-12-14,30.6,18.7,6.8,22.6,11.0,-2.7,85,71,63,31.61,31.29,13,1,14,0.01
2012-12-15,32.5,17.3,3.9,20.3,9.1,-4.0,79,70,54,31.47,31.41,8,1,8,0.00
2012-12-16,24.6,13.2,1.4,13.1,1.1,-6.2,76,59,37,31.50,31.39,15,2,15,0.00
2012-12-17,30.6,21.4,10.2,17.8,7.6,-1.3,71,55,43,31.50,31.40,17,3,17,0.00
2012-12-18,31.3,23.0,18.0,13.3,10.7,7.0,80,60,40,31.43,31.27,17,5,17,0.00
2012-12-19,19.2,9.7,-6.7,14.4,-0.8,-24.0,81,63,39,31.72,31.18,17,5,17,0.00
2012-12-20,34.0,7.1,-16.8,1.0,-13.5,-32.6,58,39,23,31.85,31.72,11,2,11,0.02
2012-12-21,35.4,12.5,-1.5,7.3,-5.1,-12.8,65,47,24,31.86,31.75,6,1,6,0.01
2012-12-22,45.1,19.9,2.7,7.7,-5.1,-16.4,61,35,21,31.78,31.63,17,1,17,0.00
2012-12-23,36.9,22.4,9.1,11.7,-2.4,-16.2,59,35,21,31.66,31.58,17,2,17,0.00
2012-12-24,33.6,21.1,12.6,15.3,7.8,-0.9,79,58,32,31.58,31.32,17,4,17,0.00
2012-12-25,27.5,12.3,-4.9,8.2,0.6,-15.9,76,60,38,31.59,31.38,10,1,10,0.00
2012-12-26,27.9,10.5,-4.2,14.7,0.3,-14.8,76,63,43,31.54,31.25,15,3,15,0.00
2012-12-27,25.3,12.9,4.8,7.5,1.0,-4.5,74,59,42,31.39,31.24,11,2,11,0.00